sensor_id;sensor_type;location;lat;lon;timestamp;P1;durP1;ratioP1;P2;durP2;ratioP2
37847;SDS011;23688;33.130;-117.188;2024-01-15T00:00:43;12.05;;;3.08;;
37847;SDS011;23688;33.130;-117.188;2024-01-15T00:03:11;10.38;;;2.65;;
37847;SDS011;23688;33.130;-117.188;2024-01-15T00:05:37;11.45;;;3.38;;
37847;SDS011;23688;33.130;-117.188;2024-01-15T00:08:04;10.98;;;3.40;;
37847;SDS011;23688;33.130;-117.188;2024-01-15T00:10:30;10.95;;;2.60;;
37847;SDS011;23688;33.130;-117.188;2024-01-15T00:12:56;18.02;;;4.38;;
37847;SDS011;23688;33.130;-117.188;2024-01-15T00:15:22;16.95;;;3.22;;
37847;SDS011;23688;33.130;-117.188;2024-01-15T00:17:49;10.85;;;3.30;;
37847;SDS011;23688;33.130;-117.188;2024-01-15T00:20:15;12.68;;;3.08;;
37847;SDS011;23688;33.130;-117.188;2024-01-15T00:22:42;23.20;;;4.47;;
37847;SDS011;23688;33.130;-117.188;2024-01-15T00:25:08;14.10;;;3.20;;
37847;SDS011;23688;33.130;-117.188;2024-01-15T00:27:34;33.00;;;4.40;;
37847;SDS011;23688;33.130;-117.188;2024-01-15T00:30:01;11.45;;;3.42;;
37847;SDS011;23688;33.130;-117.188;2024-01-15T00:32:27;17.40;;;3.42;;
37847;SDS011;23688;33.130;-117.188;2024-01-15T00:34:54;14.25;;;3.22;;
37847;SDS011;23688;33.130;-117.188;2024-01-15T00:37:20;17.70;;;3.67;;
37847;SDS011;23688;33.130;-117.188;2024-01-15T00:39:46;19.13;;;3.60;;
37847;SDS011;23688;33.130;-117.188;2024-01-15T00:42:12;15.93;;;3.45;;
37847;SDS011;23688;33.130;-117.188;2024-01-15T00:44:39;13.75;;;3.25;;
37847;SDS011;23688;33.130;-117.188;2024-01-15T00:47:05;17.52;;;4.38;;
37847;SDS011;23688;33.130;-117.188;2024-01-15T00:49:31;16.80;;;3.92;;
37847;SDS011;23688;33.130;-117.188;2024-01-15T00:51:58;12.50;;;3.45;;
37847;SDS011;23688;33.130;-117.188;2024-01-15T00:54:24;14.35;;;3.00;;
37847;SDS011;23688;33.130;-117.188;2024-01-15T00:56:50;10.25;;;2.90;;
37847;SDS011;23688;33.130;-117.188;2024-01-15T00:59:16;9.88;;;3.60;;
37847;SDS011;23688;33.130;-117.188;2024-01-15T01:01:43;14.77;;;3.50;;
37847;SDS011;23688;33.130;-117.188;2024-01-15T01:04:11;14.88;;;3.47;;
37847;SDS011;23688;33.130;-117.188;2024-01-15T01:06:38;12.13;;;2.97;;
37847;SDS011;23688;33.130;-117.188;2024-01-15T01:09:04;15.98;;;4.32;;
37847;SDS011;23688;33.130;-117.188;2024-01-15T01:11:30;12.15;;;3.67;;
37847;SDS011;23688;33.130;-117.188;2024-01-15T01:13:57;11.50;;;3.50;;
37847;SDS011;23688;33.130;-117.188;2024-01-15T01:16:24;12.27;;;4.10;;
37847;SDS011;23688;33.130;-117.188;2024-01-15T01:18:50;15.48;;;4.90;;
37847;SDS011;23688;33.130;-117.188;2024-01-15T01:21:16;13.52;;;3.67;;
37847;SDS011;23688;33.130;-117.188;2024-01-15T01:23:42;14.77;;;4.03;;
37847;SDS011;23688;33.130;-117.188;2024-01-15T01:26:09;10.57;;;3.95;;
37847;SDS011;23688;33.130;-117.188;2024-01-15T01:28:35;8.75;;;3.85;;
37847;SDS011;23688;33.130;-117.188;2024-01-15T01:31:01;13.05;;;3.53;;
37847;SDS011;23688;33.130;-117.188;2024-01-15T01:33:28;14.95;;;3.53;;
37847;SDS011;23688;33.130;-117.188;2024-01-15T01:35:54;14.98;;;4.20;;
37847;SDS011;23688;33.130;-117.188;2024-01-15T01:38:21;13.70;;;4.78;;
37847;SDS011;23688;33.130;-117.188;2024-01-15T01:40:48;18.17;;;4.05;;
37847;SDS011;23688;33.130;-117.188;2024-01-15T01:43:14;14.88;;;3.08;;
37847;SDS011;23688;33.130;-117.188;2024-01-15T01:45:41;16.67;;;4.20;;
37847;SDS011;23688;33.130;-117.188;2024-01-15T01:48:07;15.40;;;3.92;;
37847;SDS011;23688;33.130;-117.188;2024-01-15T01:50:37;15.77;;;4.57;;
37847;SDS011;23688;33.130;-117.188;2024-01-15T01:53:03;22.85;;;9.80;;
37847;SDS011;23688;33.130;-117.188;2024-01-15T01:55:30;26.77;;;12.90;;
37847;SDS011;23688;33.130;-117.188;2024-01-15T02:00:25;19.45;;;7.35;;
37847;SDS011;23688;33.130;-117.188;2024-01-15T02:02:54;35.20;;;15.77;;
37847;SDS011;23688;33.130;-117.188;2024-01-15T02:05:21;16.17;;;4.20;;
37847;SDS011;23688;33.130;-117.188;2024-01-15T02:07:50;17.52;;;7.68;;
37847;SDS011;23688;33.130;-117.188;2024-01-15T02:10:16;22.92;;;7.32;;
37847;SDS011;23688;33.130;-117.188;2024-01-15T02:12:43;13.50;;;4.80;;
37847;SDS011;23688;33.130;-117.188;2024-01-15T02:15:10;13.57;;;4.43;;
37847;SDS011;23688;33.130;-117.188;2024-01-15T02:17:55;17.92;;;3.97;;
37847;SDS011;23688;33.130;-117.188;2024-01-15T02:20:24;12.93;;;5.05;;
37847;SDS011;23688;33.130;-117.188;2024-01-15T02:22:52;15.95;;;4.35;;
37847;SDS011;23688;33.130;-117.188;2024-01-15T02:25:19;18.85;;;5.97;;
37847;SDS011;23688;33.130;-117.188;2024-01-15T02:27:46;18.90;;;4.63;;
37847;SDS011;23688;33.130;-117.188;2024-01-15T02:30:13;18.23;;;5.60;;
37847;SDS011;23688;33.130;-117.188;2024-01-15T02:32:39;20.67;;;5.28;;
37847;SDS011;23688;33.130;-117.188;2024-01-15T02:35:05;25.73;;;7.60;;
37847;SDS011;23688;33.130;-117.188;2024-01-15T02:37:32;18.00;;;6.65;;
37847;SDS011;23688;33.130;-117.188;2024-01-15T02:39:58;29.75;;;7.13;;
37847;SDS011;23688;33.130;-117.188;2024-01-15T02:42:26;21.33;;;5.15;;
37847;SDS011;23688;33.130;-117.188;2024-01-15T02:44:52;21.02;;;5.13;;
37847;SDS011;23688;33.130;-117.188;2024-01-15T02:47:18;39.20;;;19.25;;
37847;SDS011;23688;33.130;-117.188;2024-01-15T02:49:45;19.25;;;6.68;;
37847;SDS011;23688;33.130;-117.188;2024-01-15T02:52:11;16.98;;;6.22;;
37847;SDS011;23688;33.130;-117.188;2024-01-15T02:54:37;17.88;;;6.80;;
37847;SDS011;23688;33.130;-117.188;2024-01-15T02:57:04;20.58;;;6.28;;
37847;SDS011;23688;33.130;-117.188;2024-01-15T02:59:30;21.92;;;7.82;;
37847;SDS011;23688;33.130;-117.188;2024-01-15T03:01:59;17.83;;;8.05;;
37847;SDS011;23688;33.130;-117.188;2024-01-15T03:04:26;18.92;;;7.85;;
37847;SDS011;23688;33.130;-117.188;2024-01-15T03:06:52;21.70;;;7.05;;
37847;SDS011;23688;33.130;-117.188;2024-01-15T03:09:18;17.65;;;5.25;;
37847;SDS011;23688;33.130;-117.188;2024-01-15T03:11:44;22.13;;;5.88;;
37847;SDS011;23688;33.130;-117.188;2024-01-15T03:14:11;19.13;;;5.18;;
37847;SDS011;23688;33.130;-117.188;2024-01-15T03:16:37;22.73;;;7.38;;
37847;SDS011;23688;33.130;-117.188;2024-01-15T03:19:03;24.75;;;6.63;;
37847;SDS011;23688;33.130;-117.188;2024-01-15T03:21:30;18.98;;;5.35;;
37847;SDS011;23688;33.130;-117.188;2024-01-15T03:23:56;28.80;;;6.55;;
37847;SDS011;23688;33.130;-117.188;2024-01-15T03:26:22;19.52;;;7.18;;
37847;SDS011;23688;33.130;-117.188;2024-01-15T03:28:48;21.40;;;7.28;;
37847;SDS011;23688;33.130;-117.188;2024-01-15T03:31:15;18.27;;;6.82;;
37847;SDS011;23688;33.130;-117.188;2024-01-15T03:33:41;27.48;;;7.65;;
37847;SDS011;23688;33.130;-117.188;2024-01-15T03:36:07;22.85;;;7.07;;
37847;SDS011;23688;33.130;-117.188;2024-01-15T03:38:38;20.90;;;7.43;;
37847;SDS011;23688;33.130;-117.188;2024-01-15T03:41:08;23.80;;;7.90;;
37847;SDS011;23688;33.130;-117.188;2024-01-15T03:43:34;17.98;;;7.03;;
37847;SDS011;23688;33.130;-117.188;2024-01-15T03:46:01;16.08;;;7.57;;
37847;SDS011;23688;33.130;-117.188;2024-01-15T03:48:29;16.98;;;7.68;;
37847;SDS011;23688;33.130;-117.188;2024-01-15T03:50:55;23.33;;;9.07;;
37847;SDS011;23688;33.130;-117.188;2024-01-15T03:53:22;28.33;;;11.20;;
37847;SDS011;23688;33.130;-117.188;2024-01-15T03:55:48;19.20;;;7.10;;
37847;SDS011;23688;33.130;-117.188;2024-01-15T03:58:15;20.40;;;8.30;;
37847;SDS011;23688;33.130;-117.188;2024-01-15T04:00:42;16.58;;;7.38;;
37847;SDS011;23688;33.130;-117.188;2024-01-15T04:03:09;22.77;;;9.45;;
37847;SDS011;23688;33.130;-117.188;2024-01-15T04:05:35;22.05;;;8.50;;
37847;SDS011;23688;33.130;-117.188;2024-01-15T04:08:01;17.90;;;7.50;;
37847;SDS011;23688;33.130;-117.188;2024-01-15T04:10:27;23.27;;;10.10;;
37847;SDS011;23688;33.130;-117.188;2024-01-15T04:12:54;24.63;;;11.88;;
37847;SDS011;23688;33.130;-117.188;2024-01-15T04:15:20;29.70;;;12.73;;
37847;SDS011;23688;33.130;-117.188;2024-01-15T04:17:46;26.73;;;11.35;;
37847;SDS011;23688;33.130;-117.188;2024-01-15T04:20:13;27.17;;;11.10;;
37847;SDS011;23688;33.130;-117.188;2024-01-15T04:22:39;24.88;;;10.85;;
37847;SDS011;23688;33.130;-117.188;2024-01-15T04:25:05;31.95;;;15.05;;
37847;SDS011;23688;33.130;-117.188;2024-01-15T04:27:32;41.85;;;17.17;;
37847;SDS011;23688;33.130;-117.188;2024-01-15T04:29:58;44.95;;;17.45;;
37847;SDS011;23688;33.130;-117.188;2024-01-15T04:32:24;45.05;;;11.82;;
37847;SDS011;23688;33.130;-117.188;2024-01-15T04:34:51;38.25;;;15.27;;
37847;SDS011;23688;33.130;-117.188;2024-01-15T04:37:20;26.83;;;12.23;;
37847;SDS011;23688;33.130;-117.188;2024-01-15T04:39:46;25.42;;;12.55;;
37847;SDS011;23688;33.130;-117.188;2024-01-15T04:42:13;20.50;;;9.98;;
37847;SDS011;23688;33.130;-117.188;2024-01-15T04:44:39;22.83;;;10.32;;
37847;SDS011;23688;33.130;-117.188;2024-01-15T04:47:06;25.30;;;8.88;;
37847;SDS011;23688;33.130;-117.188;2024-01-15T04:49:32;27.60;;;9.35;;
37847;SDS011;23688;33.130;-117.188;2024-01-15T04:51:58;22.85;;;9.23;;
37847;SDS011;23688;33.130;-117.188;2024-01-15T04:54:24;26.20;;;8.95;;
37847;SDS011;23688;33.130;-117.188;2024-01-15T04:56:51;22.40;;;6.57;;
37847;SDS011;23688;33.130;-117.188;2024-01-15T04:59:17;17.77;;;7.43;;
37847;SDS011;23688;33.130;-117.188;2024-01-15T05:01:43;18.52;;;6.70;;
37847;SDS011;23688;33.130;-117.188;2024-01-15T05:04:09;23.55;;;8.52;;
37847;SDS011;23688;33.130;-117.188;2024-01-15T05:06:36;25.23;;;9.18;;
37847;SDS011;23688;33.130;-117.188;2024-01-15T05:09:02;24.90;;;10.13;;
37847;SDS011;23688;33.130;-117.188;2024-01-15T05:11:29;22.08;;;9.45;;
37847;SDS011;23688;33.130;-117.188;2024-01-15T05:13:56;25.55;;;9.52;;
37847;SDS011;23688;33.130;-117.188;2024-01-15T05:16:22;22.50;;;9.68;;
37847;SDS011;23688;33.130;-117.188;2024-01-15T05:18:48;18.60;;;8.73;;
37847;SDS011;23688;33.130;-117.188;2024-01-15T05:21:14;23.45;;;9.45;;
37847;SDS011;23688;33.130;-117.188;2024-01-15T05:23:40;20.13;;;9.18;;
37847;SDS011;23688;33.130;-117.188;2024-01-15T05:26:07;14.63;;;8.30;;
37847;SDS011;23688;33.130;-117.188;2024-01-15T05:28:34;24.55;;;10.40;;
37847;SDS011;23688;33.130;-117.188;2024-01-15T05:31:02;32.33;;;10.70;;
37847;SDS011;23688;33.130;-117.188;2024-01-15T05:33:29;28.23;;;11.25;;
37847;SDS011;23688;33.130;-117.188;2024-01-15T05:35:55;26.40;;;11.52;;
37847;SDS011;23688;33.130;-117.188;2024-01-15T05:38:23;23.67;;;11.75;;
37847;SDS011;23688;33.130;-117.188;2024-01-15T05:40:50;29.05;;;11.07;;
37847;SDS011;23688;33.130;-117.188;2024-01-15T05:43:16;23.15;;;11.43;;
37847;SDS011;23688;33.130;-117.188;2024-01-15T05:45:42;32.67;;;10.38;;
37847;SDS011;23688;33.130;-117.188;2024-01-15T05:48:10;29.25;;;11.10;;
37847;SDS011;23688;33.130;-117.188;2024-01-15T05:50:36;26.83;;;10.18;;
37847;SDS011;23688;33.130;-117.188;2024-01-15T05:53:03;18.77;;;9.93;;
37847;SDS011;23688;33.130;-117.188;2024-01-15T05:55:30;21.90;;;7.78;;
37847;SDS011;23688;33.130;-117.188;2024-01-15T05:57:56;25.92;;;7.55;;
37847;SDS011;23688;33.130;-117.188;2024-01-15T06:00:22;19.50;;;7.03;;
37847;SDS011;23688;33.130;-117.188;2024-01-15T06:02:49;14.60;;;6.40;;
37847;SDS011;23688;33.130;-117.188;2024-01-15T06:05:15;25.55;;;7.57;;
37847;SDS011;23688;33.130;-117.188;2024-01-15T06:07:41;24.95;;;9.10;;
37847;SDS011;23688;33.130;-117.188;2024-01-15T06:10:07;28.52;;;9.38;;
37847;SDS011;23688;33.130;-117.188;2024-01-15T06:12:34;23.90;;;10.43;;
37847;SDS011;23688;33.130;-117.188;2024-01-15T06:15:00;30.40;;;11.05;;
37847;SDS011;23688;33.130;-117.188;2024-01-15T06:17:27;28.05;;;11.07;;
37847;SDS011;23688;33.130;-117.188;2024-01-15T06:19:53;32.17;;;14.38;;
37847;SDS011;23688;33.130;-117.188;2024-01-15T06:22:20;24.88;;;14.43;;
37847;SDS011;23688;33.130;-117.188;2024-01-15T06:24:46;34.58;;;15.30;;
37847;SDS011;23688;33.130;-117.188;2024-01-15T06:27:12;37.60;;;16.58;;
37847;SDS011;23688;33.130;-117.188;2024-01-15T06:29:38;31.27;;;16.08;;
37847;SDS011;23688;33.130;-117.188;2024-01-15T06:32:10;26.67;;;16.58;;
37847;SDS011;23688;33.130;-117.188;2024-01-15T06:34:36;36.15;;;16.88;;
37847;SDS011;23688;33.130;-117.188;2024-01-15T06:37:02;34.45;;;15.80;;
37847;SDS011;23688;33.130;-117.188;2024-01-15T06:39:29;31.15;;;14.57;;
37847;SDS011;23688;33.130;-117.188;2024-01-15T06:41:55;35.10;;;15.45;;
37847;SDS011;23688;33.130;-117.188;2024-01-15T06:44:21;28.45;;;14.73;;
37847;SDS011;23688;33.130;-117.188;2024-01-15T06:46:48;33.95;;;15.82;;
37847;SDS011;23688;33.130;-117.188;2024-01-15T06:49:14;30.58;;;15.85;;
37847;SDS011;23688;33.130;-117.188;2024-01-15T06:51:41;27.85;;;14.50;;
37847;SDS011;23688;33.130;-117.188;2024-01-15T06:54:07;34.50;;;15.45;;
37847;SDS011;23688;33.130;-117.188;2024-01-15T06:56:34;30.67;;;14.13;;
37847;SDS011;23688;33.130;-117.188;2024-01-15T06:59:00;35.70;;;14.20;;
37847;SDS011;23688;33.130;-117.188;2024-01-15T07:01:26;28.00;;;12.73;;
37847;SDS011;23688;33.130;-117.188;2024-01-15T07:03:53;23.35;;;12.55;;
37847;SDS011;23688;33.130;-117.188;2024-01-15T07:06:20;25.40;;;13.85;;
37847;SDS011;23688;33.130;-117.188;2024-01-15T07:08:46;26.02;;;13.65;;
37847;SDS011;23688;33.130;-117.188;2024-01-15T07:11:13;33.20;;;15.20;;
37847;SDS011;23688;33.130;-117.188;2024-01-15T07:13:39;26.48;;;14.38;;
37847;SDS011;23688;33.130;-117.188;2024-01-15T07:16:05;24.08;;;11.85;;
37847;SDS011;23688;33.130;-117.188;2024-01-15T07:18:32;25.20;;;10.23;;
37847;SDS011;23688;33.130;-117.188;2024-01-15T07:20:59;20.73;;;10.10;;
37847;SDS011;23688;33.130;-117.188;2024-01-15T07:23:26;33.28;;;15.23;;
37847;SDS011;23688;33.130;-117.188;2024-01-15T07:25:52;29.38;;;14.55;;
37847;SDS011;23688;33.130;-117.188;2024-01-15T07:28:19;32.10;;;13.68;;
37847;SDS011;23688;33.130;-117.188;2024-01-15T07:30:45;32.42;;;15.43;;
37847;SDS011;23688;33.130;-117.188;2024-01-15T07:33:11;33.38;;;15.73;;
37847;SDS011;23688;33.130;-117.188;2024-01-15T07:35:38;42.10;;;16.25;;
37847;SDS011;23688;33.130;-117.188;2024-01-15T07:38:04;31.60;;;16.73;;
37847;SDS011;23688;33.130;-117.188;2024-01-15T07:40:30;28.52;;;16.48;;
37847;SDS011;23688;33.130;-117.188;2024-01-15T07:42:57;31.25;;;17.67;;
37847;SDS011;23688;33.130;-117.188;2024-01-15T07:45:23;37.20;;;16.65;;
37847;SDS011;23688;33.130;-117.188;2024-01-15T07:47:49;32.33;;;15.95;;
37847;SDS011;23688;33.130;-117.188;2024-01-15T07:50:16;36.30;;;15.95;;
37847;SDS011;23688;33.130;-117.188;2024-01-15T07:52:42;32.15;;;16.08;;
37847;SDS011;23688;33.130;-117.188;2024-01-15T07:55:08;36.35;;;15.90;;
37847;SDS011;23688;33.130;-117.188;2024-01-15T07:57:34;35.80;;;16.67;;
37847;SDS011;23688;33.130;-117.188;2024-01-15T08:00:04;37.85;;;16.95;;
37847;SDS011;23688;33.130;-117.188;2024-01-15T08:02:30;26.42;;;14.73;;
37847;SDS011;23688;33.130;-117.188;2024-01-15T08:04:57;31.77;;;15.63;;
37847;SDS011;23688;33.130;-117.188;2024-01-15T08:07:24;31.10;;;15.68;;
37847;SDS011;23688;33.130;-117.188;2024-01-15T08:09:51;25.83;;;14.73;;
37847;SDS011;23688;33.130;-117.188;2024-01-15T08:12:18;28.92;;;14.60;;
37847;SDS011;23688;33.130;-117.188;2024-01-15T08:14:44;30.98;;;14.88;;
37847;SDS011;23688;33.130;-117.188;2024-01-15T08:17:11;27.80;;;14.30;;
37847;SDS011;23688;33.130;-117.188;2024-01-15T08:19:37;29.65;;;13.88;;
37847;SDS011;23688;33.130;-117.188;2024-01-15T08:22:06;30.83;;;13.70;;
37847;SDS011;23688;33.130;-117.188;2024-01-15T08:24:32;26.58;;;12.32;;
37847;SDS011;23688;33.130;-117.188;2024-01-15T08:27:00;31.20;;;11.60;;
37847;SDS011;23688;33.130;-117.188;2024-01-15T08:29:27;28.40;;;12.05;;
37847;SDS011;23688;33.130;-117.188;2024-01-15T08:31:53;27.13;;;12.60;;
37847;SDS011;23688;33.130;-117.188;2024-01-15T08:34:20;23.77;;;10.68;;
37847;SDS011;23688;33.130;-117.188;2024-01-15T08:36:46;21.35;;;11.20;;
37847;SDS011;23688;33.130;-117.188;2024-01-15T08:39:12;29.52;;;11.60;;
37847;SDS011;23688;33.130;-117.188;2024-01-15T08:41:39;26.52;;;12.65;;
37847;SDS011;23688;33.130;-117.188;2024-01-15T08:44:05;34.28;;;10.25;;
37847;SDS011;23688;33.130;-117.188;2024-01-15T08:46:31;21.80;;;12.45;;
37847;SDS011;23688;33.130;-117.188;2024-01-15T08:48:58;30.67;;;13.30;;
37847;SDS011;23688;33.130;-117.188;2024-01-15T08:51:24;35.30;;;13.52;;
37847;SDS011;23688;33.130;-117.188;2024-01-15T08:53:50;29.45;;;12.52;;
37847;SDS011;23688;33.130;-117.188;2024-01-15T08:56:16;23.67;;;12.63;;
37847;SDS011;23688;33.130;-117.188;2024-01-15T08:58:43;21.08;;;11.73;;
37847;SDS011;23688;33.130;-117.188;2024-01-15T09:01:11;18.38;;;11.32;;
37847;SDS011;23688;33.130;-117.188;2024-01-15T09:03:37;23.15;;;11.52;;
37847;SDS011;23688;33.130;-117.188;2024-01-15T09:06:05;30.20;;;13.18;;
37847;SDS011;23688;33.130;-117.188;2024-01-15T09:08:31;32.90;;;13.13;;
37847;SDS011;23688;33.130;-117.188;2024-01-15T09:10:58;25.23;;;12.23;;
37847;SDS011;23688;33.130;-117.188;2024-01-15T09:13:26;19.00;;;11.43;;
37847;SDS011;23688;33.130;-117.188;2024-01-15T09:15:52;32.67;;;11.95;;
37847;SDS011;23688;33.130;-117.188;2024-01-15T09:18:18;32.67;;;13.38;;
37847;SDS011;23688;33.130;-117.188;2024-01-15T09:20:45;23.13;;;13.05;;
37847;SDS011;23688;33.130;-117.188;2024-01-15T09:23:11;31.35;;;12.55;;
37847;SDS011;23688;33.130;-117.188;2024-01-15T09:25:37;29.60;;;13.13;;
37847;SDS011;23688;33.130;-117.188;2024-01-15T09:28:04;27.15;;;12.80;;
37847;SDS011;23688;33.130;-117.188;2024-01-15T09:30:30;29.33;;;12.55;;
37847;SDS011;23688;33.130;-117.188;2024-01-15T09:32:56;31.33;;;12.82;;
37847;SDS011;23688;33.130;-117.188;2024-01-15T09:35:23;33.05;;;12.20;;
37847;SDS011;23688;33.130;-117.188;2024-01-15T09:37:50;29.17;;;11.10;;
37847;SDS011;23688;33.130;-117.188;2024-01-15T09:40:16;22.77;;;10.95;;
37847;SDS011;23688;33.130;-117.188;2024-01-15T09:42:45;27.50;;;11.65;;
37847;SDS011;23688;33.130;-117.188;2024-01-15T09:45:12;34.58;;;12.15;;
37847;SDS011;23688;33.130;-117.188;2024-01-15T09:47:40;30.67;;;11.18;;
37847;SDS011;23688;33.130;-117.188;2024-01-15T09:50:10;26.88;;;11.65;;
37847;SDS011;23688;33.130;-117.188;2024-01-15T09:52:36;25.08;;;10.20;;
37847;SDS011;23688;33.130;-117.188;2024-01-15T09:55:03;21.67;;;9.98;;
37847;SDS011;23688;33.130;-117.188;2024-01-15T09:57:30;21.02;;;10.15;;
37847;SDS011;23688;33.130;-117.188;2024-01-15T09:59:57;21.20;;;9.80;;
37847;SDS011;23688;33.130;-117.188;2024-01-15T10:02:29;19.58;;;10.10;;
37847;SDS011;23688;33.130;-117.188;2024-01-15T10:04:56;23.95;;;11.07;;
37847;SDS011;23688;33.130;-117.188;2024-01-15T10:07:22;27.80;;;9.98;;
37847;SDS011;23688;33.130;-117.188;2024-01-15T10:09:51;22.48;;;9.65;;
37847;SDS011;23688;33.130;-117.188;2024-01-15T10:12:17;19.17;;;10.40;;
37847;SDS011;23688;33.130;-117.188;2024-01-15T10:14:43;20.10;;;8.82;;
37847;SDS011;23688;33.130;-117.188;2024-01-15T10:17:13;26.65;;;11.13;;
37847;SDS011;23688;33.130;-117.188;2024-01-15T10:19:43;26.20;;;11.20;;
37847;SDS011;23688;33.130;-117.188;2024-01-15T10:22:13;19.15;;;10.70;;
37847;SDS011;23688;33.130;-117.188;2024-01-15T10:24:41;19.95;;;10.07;;
37847;SDS011;23688;33.130;-117.188;2024-01-15T10:27:08;18.63;;;9.95;;
37847;SDS011;23688;33.130;-117.188;2024-01-15T10:29:35;17.67;;;8.32;;
37847;SDS011;23688;33.130;-117.188;2024-01-15T10:32:02;18.33;;;8.73;;
37847;SDS011;23688;33.130;-117.188;2024-01-15T10:34:33;21.48;;;11.13;;
37847;SDS011;23688;33.130;-117.188;2024-01-15T10:37:03;20.17;;;8.88;;
37847;SDS011;23688;33.130;-117.188;2024-01-15T10:39:29;26.20;;;11.57;;
37847;SDS011;23688;33.130;-117.188;2024-01-15T10:41:56;18.10;;;10.23;;
37847;SDS011;23688;33.130;-117.188;2024-01-15T10:44:22;19.25;;;10.57;;
37847;SDS011;23688;33.130;-117.188;2024-01-15T10:46:48;17.92;;;9.30;;
37847;SDS011;23688;33.130;-117.188;2024-01-15T10:49:15;15.75;;;7.00;;
37847;SDS011;23688;33.130;-117.188;2024-01-15T10:51:44;14.52;;;6.60;;
37847;SDS011;23688;33.130;-117.188;2024-01-15T10:54:10;12.90;;;7.60;;
37847;SDS011;23688;33.130;-117.188;2024-01-15T10:56:39;20.20;;;6.82;;
37847;SDS011;23688;33.130;-117.188;2024-01-15T10:59:06;16.58;;;6.95;;
37847;SDS011;23688;33.130;-117.188;2024-01-15T11:01:34;24.60;;;8.73;;
37847;SDS011;23688;33.130;-117.188;2024-01-15T11:04:01;16.98;;;7.10;;
37847;SDS011;23688;33.130;-117.188;2024-01-15T11:06:28;17.77;;;8.88;;
37847;SDS011;23688;33.130;-117.188;2024-01-15T11:09:06;23.17;;;10.82;;
37847;SDS011;23688;33.130;-117.188;2024-01-15T11:11:40;25.33;;;9.07;;
37847;SDS011;23688;33.130;-117.188;2024-01-15T11:14:07;21.10;;;7.22;;
37847;SDS011;23688;33.130;-117.188;2024-01-15T11:19:22;13.70;;;6.55;;
37847;SDS011;23688;33.130;-117.188;2024-01-15T11:21:48;24.38;;;9.52;;
37847;SDS011;23688;33.130;-117.188;2024-01-15T11:24:34;23.30;;;10.30;;
37847;SDS011;23688;33.130;-117.188;2024-01-15T11:29:31;20.48;;;10.43;;
37847;SDS011;23688;33.130;-117.188;2024-01-15T11:32:05;21.73;;;9.25;;
37847;SDS011;23688;33.130;-117.188;2024-01-15T11:37:17;18.02;;;8.77;;
37847;SDS011;23688;33.130;-117.188;2024-01-15T11:39:45;22.02;;;10.93;;
37847;SDS011;23688;33.130;-117.188;2024-01-15T11:42:12;24.17;;;9.82;;
37847;SDS011;23688;33.130;-117.188;2024-01-15T11:44:39;24.08;;;10.73;;
37847;SDS011;23688;33.130;-117.188;2024-01-15T11:47:07;24.38;;;9.23;;
37847;SDS011;23688;33.130;-117.188;2024-01-15T11:52:24;20.70;;;9.32;;
37847;SDS011;23688;33.130;-117.188;2024-01-15T11:57:46;22.52;;;9.55;;
37847;SDS011;23688;33.130;-117.188;2024-01-15T12:00:15;15.68;;;9.60;;
37847;SDS011;23688;33.130;-117.188;2024-01-15T12:02:43;17.38;;;9.18;;
37847;SDS011;23688;33.130;-117.188;2024-01-15T12:05:11;21.25;;;7.78;;
37847;SDS011;23688;33.130;-117.188;2024-01-15T12:07:39;23.88;;;9.75;;
37847;SDS011;23688;33.130;-117.188;2024-01-15T12:13:14;20.95;;;9.20;;
37847;SDS011;23688;33.130;-117.188;2024-01-15T12:15:45;21.35;;;9.57;;
37847;SDS011;23688;33.130;-117.188;2024-01-15T12:18:16;24.88;;;9.43;;
37847;SDS011;23688;33.130;-117.188;2024-01-15T12:20:44;25.23;;;10.98;;
37847;SDS011;23688;33.130;-117.188;2024-01-15T12:23:14;21.58;;;9.07;;
37847;SDS011;23688;33.130;-117.188;2024-01-15T12:25:42;21.73;;;8.88;;
37847;SDS011;23688;33.130;-117.188;2024-01-15T12:28:12;19.30;;;9.07;;
37847;SDS011;23688;33.130;-117.188;2024-01-15T12:30:38;20.90;;;9.63;;
37847;SDS011;23688;33.130;-117.188;2024-01-15T12:33:05;19.17;;;8.98;;
37847;SDS011;23688;33.130;-117.188;2024-01-15T12:35:34;18.05;;;7.13;;
37847;SDS011;23688;33.130;-117.188;2024-01-15T12:38:00;11.85;;;7.93;;
37847;SDS011;23688;33.130;-117.188;2024-01-15T12:40:30;28.95;;;8.23;;
37847;SDS011;23688;33.130;-117.188;2024-01-15T12:42:58;19.05;;;9.57;;
37847;SDS011;23688;33.130;-117.188;2024-01-15T12:45:25;20.65;;;9.25;;
37847;SDS011;23688;33.130;-117.188;2024-01-15T12:47:52;21.58;;;9.23;;
37847;SDS011;23688;33.130;-117.188;2024-01-15T12:50:19;20.75;;;9.38;;
37847;SDS011;23688;33.130;-117.188;2024-01-15T12:52:45;24.20;;;10.07;;
37847;SDS011;23688;33.130;-117.188;2024-01-15T12:55:12;21.30;;;8.90;;
37847;SDS011;23688;33.130;-117.188;2024-01-15T12:57:39;19.05;;;9.18;;
37847;SDS011;23688;33.130;-117.188;2024-01-15T13:00:05;19.58;;;9.75;;
37847;SDS011;23688;33.130;-117.188;2024-01-15T13:02:41;18.65;;;9.40;;
37847;SDS011;23688;33.130;-117.188;2024-01-15T13:05:08;16.75;;;9.32;;
37847;SDS011;23688;33.130;-117.188;2024-01-15T13:07:36;19.00;;;7.88;;
37847;SDS011;23688;33.130;-117.188;2024-01-15T13:10:03;21.20;;;9.10;;
37847;SDS011;23688;33.130;-117.188;2024-01-15T13:12:30;16.17;;;8.27;;
37847;SDS011;23688;33.130;-117.188;2024-01-15T13:14:57;17.80;;;8.63;;
37847;SDS011;23688;33.130;-117.188;2024-01-15T13:17:24;20.67;;;9.30;;
37847;SDS011;23688;33.130;-117.188;2024-01-15T13:19:50;17.70;;;8.82;;
37847;SDS011;23688;33.130;-117.188;2024-01-15T13:22:17;19.67;;;9.00;;
37847;SDS011;23688;33.130;-117.188;2024-01-15T13:24:43;17.73;;;8.65;;
37847;SDS011;23688;33.130;-117.188;2024-01-15T13:27:10;16.23;;;7.95;;
37847;SDS011;23688;33.130;-117.188;2024-01-15T13:29:37;15.50;;;8.40;;
37847;SDS011;23688;33.130;-117.188;2024-01-15T13:32:03;23.33;;;9.07;;
37847;SDS011;23688;33.130;-117.188;2024-01-15T13:34:30;19.98;;;8.52;;
37847;SDS011;23688;33.130;-117.188;2024-01-15T13:36:57;16.17;;;7.68;;
37847;SDS011;23688;33.130;-117.188;2024-01-15T13:39:23;18.00;;;8.10;;
37847;SDS011;23688;33.130;-117.188;2024-01-15T13:41:49;17.08;;;8.30;;
37847;SDS011;23688;33.130;-117.188;2024-01-15T13:44:15;15.70;;;7.55;;
37847;SDS011;23688;33.130;-117.188;2024-01-15T13:46:43;14.63;;;8.35;;
37847;SDS011;23688;33.130;-117.188;2024-01-15T13:49:10;22.13;;;9.37;;
37847;SDS011;23688;33.130;-117.188;2024-01-15T13:51:36;16.08;;;7.70;;
37847;SDS011;23688;33.130;-117.188;2024-01-15T13:56:31;14.35;;;7.75;;
37847;SDS011;23688;33.130;-117.188;2024-01-15T13:58:58;16.50;;;6.82;;
37847;SDS011;23688;33.130;-117.188;2024-01-15T14:01:25;16.60;;;7.97;;
37847;SDS011;23688;33.130;-117.188;2024-01-15T14:03:52;14.55;;;7.57;;
37847;SDS011;23688;33.130;-117.188;2024-01-15T14:06:19;22.65;;;7.43;;
37847;SDS011;23688;33.130;-117.188;2024-01-15T14:08:45;16.85;;;8.50;;
37847;SDS011;23688;33.130;-117.188;2024-01-15T14:11:12;18.05;;;8.05;;